createdAt,value
2022-11-26T00:02:18.928Z,50.73
2022-11-26T00:04:48.009Z,38.17
2022-11-26T00:07:19.208Z,38.57
2022-11-26T00:09:46.667Z,38.30
2022-11-26T00:12:16.893Z,39.30
2022-11-26T00:14:44.591Z,37.57
2022-11-26T00:17:13.200Z,39.07
2022-11-26T00:19:41.259Z,41.30
2022-11-26T00:22:21.947Z,34.87
2022-11-26T00:24:50.442Z,40.33
2022-11-26T00:27:18.010Z,57.30
2022-11-26T00:29:45.496Z,38.60
2022-11-26T00:32:16.827Z,41.47
2022-11-26T00:34:44.345Z,40.63
2022-11-26T00:37:20.461Z,49.97
2022-11-26T00:39:48.253Z,39.53
2022-11-26T00:42:15.726Z,40.33
2022-11-26T00:44:43.135Z,38.10
2022-11-26T00:47:10.910Z,46.33
2022-11-26T00:49:38.514Z,42.10
2022-11-26T00:52:15.652Z,40.13
2022-11-26T00:54:44.488Z,87.03
2022-11-26T00:57:12.054Z,42.57
2022-11-26T00:59:39.487Z,42.00
2022-11-26T01:02:07.010Z,39.70
2022-11-26T01:04:34.907Z,41.30
2022-11-26T01:07:02.631Z,45.93
2022-11-26T01:09:30.117Z,56.27
2022-11-26T01:11:58.840Z,42.20
2022-11-26T01:14:26.372Z,44.03
2022-11-26T01:16:56.770Z,44.57
2022-11-26T01:19:24.418Z,44.67
2022-11-26T01:21:51.789Z,40.87
2022-11-26T01:24:19.173Z,46.10
2022-11-26T01:26:46.757Z,44.93
2022-11-26T01:29:17.947Z,41.90
2022-11-26T01:31:45.883Z,43.90
2022-11-26T01:34:13.605Z,43.77
2022-11-26T01:36:42.333Z,55.63
2022-11-26T01:39:16.171Z,42.70
2022-11-26T01:41:46.837Z,46.13
2022-11-26T01:44:20.166Z,52.17
2022-11-26T01:46:48.216Z,53.80
2022-11-26T01:49:18.032Z,60.03
2022-11-26T01:51:46.987Z,61.57
2022-11-26T01:54:15.526Z,60.30
2022-11-26T01:56:46.536Z,66.37
2022-11-26T01:59:22.896Z,66.00
2022-11-26T02:01:52.386Z,74.13
2022-11-26T02:04:22.547Z,78.50
2022-11-26T02:06:52.202Z,82.87
2022-11-26T02:09:20.217Z,71.70
2022-11-26T02:11:47.778Z,62.30
2022-11-26T02:14:18.854Z,69.80
2022-11-26T02:16:59.062Z,76.60
2022-11-26T02:19:46.406Z,63.80
2022-11-26T02:22:32.828Z,56.37
2022-11-26T02:25:13.066Z,62.63
2022-11-26T02:28:03.493Z,54.80
2022-11-26T02:30:43.392Z,48.40
2022-11-26T02:33:17.130Z,57.83
2022-11-26T02:35:48.311Z,50.87
2022-11-26T02:38:21.433Z,70.83
2022-11-26T02:40:49.228Z,73.07
2022-11-26T02:43:17.650Z,69.00
2022-11-26T02:45:49.270Z,61.47
2022-11-26T02:48:22.936Z,65.17
2022-11-26T02:50:54.948Z,65.83
2022-11-26T02:53:24.697Z,61.40
2022-11-26T02:55:56.509Z,102.23
2022-11-26T02:58:23.932Z,87.07
2022-11-26T03:00:55.191Z,85.23
2022-11-26T03:03:26.181Z,70.50
2022-11-26T03:05:57.255Z,59.17
2022-11-26T03:08:26.478Z,122.17
2022-11-26T03:10:54.002Z,91.33
2022-11-26T03:13:21.534Z,84.10
2022-11-26T03:15:49.159Z,81.10
2022-11-26T03:18:18.062Z,65.03
2022-11-26T03:20:45.498Z,69.83
2022-11-26T03:23:13.047Z,68.83
2022-11-26T03:25:40.496Z,66.60
2022-11-26T03:28:08.168Z,67.33
2022-11-26T03:30:35.842Z,63.40
2022-11-26T03:33:03.292Z,75.17
2022-11-26T03:35:32.014Z,71.47
2022-11-26T03:37:59.403Z,69.37
2022-11-26T03:40:26.846Z,72.23
2022-11-26T03:42:54.271Z,82.37
2022-11-26T03:45:21.685Z,82.03
2022-11-26T03:47:49.125Z,90.23
2022-11-26T03:50:16.685Z,99.93
2022-11-26T03:52:45.446Z,94.77
2022-11-26T03:55:12.827Z,83.40
2022-11-26T03:57:40.234Z,92.73
2022-11-26T04:00:09.883Z,81.67
2022-11-26T04:02:38.190Z,89.33
2022-11-26T04:05:06.833Z,87.13
2022-11-26T04:07:34.280Z,74.43
2022-11-26T04:10:03.272Z,71.80
2022-11-26T04:12:30.673Z,71.67
2022-11-26T04:14:58.075Z,69.50
2022-11-26T04:17:25.560Z,81.70
2022-11-26T04:19:53.087Z,81.27
2022-11-26T04:22:20.531Z,80.03
2022-11-26T04:24:48.002Z,70.33
2022-11-26T04:27:16.714Z,67.07
2022-11-26T04:29:44.111Z,66.20
2022-11-26T04:32:11.563Z,76.13
2022-11-26T04:34:39.240Z,69.00
2022-11-26T04:37:06.852Z,61.63
2022-11-26T04:39:34.503Z,65.33
2022-11-26T04:42:01.918Z,61.33
2022-11-26T04:44:30.692Z,61.10
2022-11-26T04:46:58.087Z,62.50
2022-11-26T04:49:25.778Z,64.47
2022-11-26T04:51:53.251Z,63.40
2022-11-26T04:54:20.682Z,52.00
2022-11-26T04:56:48.078Z,53.80
2022-11-26T04:59:15.479Z,55.40
2022-11-26T05:01:44.522Z,60.97
2022-11-26T05:04:12.059Z,55.07
2022-11-26T05:06:39.437Z,55.30
2022-11-26T05:09:06.907Z,46.33
2022-11-26T05:11:34.297Z,46.90
2022-11-26T05:14:01.742Z,51.67
2022-11-26T05:16:29.310Z,49.23
2022-11-26T05:18:58.092Z,41.00
2022-11-26T05:21:25.532Z,40.20
2022-11-26T05:23:52.984Z,40.30
2022-11-26T05:26:20.549Z,37.90
2022-11-26T05:28:48.068Z,43.03
2022-11-26T05:31:15.531Z,38.97
2022-11-26T05:33:43.049Z,43.17
2022-11-26T05:36:11.842Z,38.10
2022-11-26T05:38:39.230Z,39.67
2022-11-26T05:41:06.652Z,39.73
2022-11-26T05:43:34.070Z,37.10
2022-11-26T05:46:04.950Z,34.60
2022-11-26T05:48:32.504Z,34.90
2022-11-26T05:51:00.723Z,32.17
2022-11-26T05:53:30.420Z,38.10
2022-11-26T05:55:57.856Z,34.97
2022-11-26T05:58:25.466Z,37.73
2022-11-26T06:00:53.026Z,35.37
2022-11-26T06:03:20.823Z,34.70
2022-11-26T06:05:48.611Z,34.90
2022-11-26T06:08:16.016Z,33.20
2022-11-26T06:10:45.423Z,39.27
2022-11-26T06:13:12.844Z,33.50
2022-11-26T06:15:40.280Z,35.10
2022-11-26T06:18:07.697Z,38.07
2022-11-26T06:20:35.452Z,32.93
2022-11-26T06:23:02.898Z,34.83
2022-11-26T06:25:30.311Z,31.23
2022-11-26T06:27:59.048Z,40.13
2022-11-26T06:30:26.408Z,33.27
2022-11-26T06:32:53.848Z,36.33
2022-11-26T06:35:21.238Z,36.90
2022-11-26T06:37:48.686Z,35.50
2022-11-26T06:40:18.204Z,34.50
2022-11-26T06:42:49.318Z,35.47
2022-11-26T06:45:18.510Z,33.77
2022-11-26T06:47:47.475Z,35.67
2022-11-26T06:50:15.562Z,32.23
2022-11-26T06:52:42.973Z,35.17
2022-11-26T06:55:10.807Z,35.33
2022-11-26T06:57:38.272Z,47.70
2022-11-26T07:00:07.122Z,35.03
2022-11-26T07:02:35.946Z,29.87
2022-11-26T07:05:03.443Z,28.93
2022-11-26T07:07:30.981Z,28.57
2022-11-26T07:09:58.427Z,31.83
2022-11-26T07:12:25.845Z,36.23
2022-11-26T07:14:53.255Z,41.23
2022-11-26T07:17:20.635Z,34.87
2022-11-26T07:19:50.064Z,35.83
2022-11-26T07:22:17.570Z,33.33
2022-11-26T07:24:44.967Z,32.50
2022-11-26T07:27:12.405Z,38.30
2022-11-26T07:29:39.806Z,33.63
2022-11-26T07:32:07.223Z,29.40
2022-11-26T07:34:34.870Z,34.83
2022-11-26T07:37:03.620Z,39.70
2022-11-26T07:39:31.146Z,33.00
2022-11-26T07:41:58.545Z,33.73
2022-11-26T07:44:25.989Z,32.40
2022-11-26T07:46:53.578Z,35.90
2022-11-26T07:49:20.993Z,34.57
2022-11-26T07:51:48.425Z,32.10
2022-11-26T07:54:17.175Z,24.93
2022-11-26T07:56:44.537Z,38.13
2022-11-26T07:59:12.184Z,30.40
2022-11-26T08:01:39.858Z,38.23
2022-11-26T08:04:07.954Z,28.20
2022-11-26T08:06:35.520Z,25.77
2022-11-26T08:09:04.734Z,34.50
2022-11-26T08:11:34.314Z,31.03
2022-11-26T08:14:04.510Z,27.40
2022-11-26T08:16:32.495Z,24.43
2022-11-26T08:19:02.287Z,28.30
2022-11-26T08:21:29.730Z,31.93
2022-11-26T08:23:57.166Z,31.67
2022-11-26T08:26:38.444Z,31.67
2022-11-26T08:29:08.556Z,30.67
2022-11-26T08:31:39.941Z,26.23
2022-11-26T08:34:13.848Z,28.07
2022-11-26T08:36:41.327Z,32.57
2022-11-26T08:39:10.055Z,27.80
2022-11-26T08:41:37.464Z,27.17
2022-11-26T08:44:06.673Z,25.47
2022-11-26T08:46:36.253Z,26.27
2022-11-26T08:49:04.403Z,29.60
2022-11-26T08:51:31.821Z,30.37
2022-11-26T08:53:59.224Z,27.73
2022-11-26T08:56:27.030Z,30.93
2022-11-26T08:58:54.451Z,24.63
2022-11-26T09:01:24.445Z,30.07
2022-11-26T09:03:55.357Z,26.47
2022-11-26T09:06:24.865Z,23.80
2022-11-26T09:09:10.057Z,22.97
2022-11-26T09:11:40.087Z,26.67
2022-11-26T09:14:08.356Z,27.43
2022-11-26T09:16:36.024Z,26.20
2022-11-26T09:19:06.180Z,28.90
2022-11-26T09:21:34.345Z,31.60
2022-11-26T09:24:02.027Z,25.87
2022-11-26T09:26:31.161Z,29.20
2022-11-26T09:28:58.728Z,24.83
2022-11-26T09:31:26.765Z,22.87
2022-11-26T09:33:56.083Z,20.40
2022-11-26T09:36:24.981Z,20.40
2022-11-26T09:38:54.626Z,22.57
2022-11-26T09:41:38.968Z,17.27
2022-11-26T09:44:16.217Z,27.83
2022-11-26T09:47:11.094Z,20.83
2022-11-26T09:49:45.012Z,20.33
2022-11-26T09:52:18.211Z,21.60
2022-11-26T09:54:46.630Z,21.03
2022-11-26T09:57:22.690Z,20.17
2022-11-26T09:59:52.913Z,22.60
2022-11-26T10:02:20.335Z,29.80
2022-11-26T10:04:49.002Z,22.17
2022-11-26T10:07:37.287Z,19.40
2022-11-26T10:10:14.493Z,15.60
2022-11-26T10:13:17.410Z,15.97
2022-11-26T10:15:44.935Z,18.60
2022-11-26T10:18:24.339Z,14.83
2022-11-26T10:21:14.473Z,16.10
2022-11-26T10:23:48.699Z,14.93
2022-11-26T10:26:17.750Z,19.27
2022-11-26T10:28:47.154Z,19.10
2022-11-26T10:31:21.545Z,16.43
2022-11-26T10:33:55.636Z,17.63
2022-11-26T10:36:28.616Z,20.77
2022-11-26T10:38:57.372Z,16.97
2022-11-26T10:41:27.200Z,103.50
2022-11-26T10:43:54.716Z,95.47
2022-11-26T10:46:34.174Z,74.63
2022-11-26T10:49:16.719Z,36.53
2022-11-26T10:51:49.378Z,27.50
2022-11-26T10:54:30.739Z,33.97
2022-11-26T10:57:04.965Z,30.40
2022-11-26T10:59:37.907Z,26.03
2022-11-26T11:02:23.509Z,28.83
2022-11-26T11:04:53.677Z,21.53
2022-11-26T11:07:42.760Z,24.00
2022-11-26T11:10:18.284Z,18.00
2022-11-26T11:12:50.303Z,15.70
2022-11-26T11:15:25.000Z,16.40
2022-11-26T11:17:59.037Z,16.63
2022-11-26T11:20:35.591Z,15.17
2022-11-26T11:23:07.157Z,17.03
2022-11-26T11:25:38.416Z,11.50
2022-11-26T11:28:15.386Z,15.27
2022-11-26T11:30:44.406Z,16.23
2022-11-26T11:33:18.652Z,14.03
2022-11-26T11:35:51.078Z,13.50
2022-11-26T11:38:24.330Z,14.63
2022-11-26T11:40:53.241Z,15.43
2022-11-26T11:43:23.058Z,19.23
2022-11-26T11:46:08.927Z,14.30
2022-11-26T11:48:46.855Z,18.17
2022-11-26T11:51:21.291Z,15.47
2022-11-26T11:53:57.420Z,14.80
2022-11-26T11:56:32.050Z,15.53
2022-11-26T11:59:37.057Z,15.23
2022-11-26T12:02:23.775Z,16.97
2022-11-26T12:05:21.432Z,19.93
2022-11-26T12:07:59.095Z,16.63
2022-11-26T12:10:35.793Z,16.90
2022-11-26T12:13:10.784Z,17.53
2022-11-26T12:15:46.094Z,14.10
2022-11-26T12:18:23.453Z,22.50
2022-11-26T12:20:55.075Z,18.97
2022-11-26T12:23:30.616Z,22.33
2022-11-26T12:26:06.268Z,24.67
2022-11-26T12:28:41.016Z,17.23
2022-11-26T12:31:13.872Z,22.60
2022-11-26T12:33:47.348Z,19.20
2022-11-26T12:36:21.355Z,18.37
2022-11-26T12:38:54.092Z,23.77
2022-11-26T12:41:26.259Z,25.30
2022-11-26T12:44:02.222Z,22.30
2022-11-26T12:46:35.903Z,17.87
2022-11-26T12:49:11.138Z,21.10
2022-11-26T12:51:44.296Z,18.80
2022-11-26T12:54:17.643Z,22.47
2022-11-26T12:56:55.301Z,19.40
2022-11-26T12:59:31.853Z,20.93
2022-11-26T13:01:59.840Z,19.30
2022-11-26T13:04:37.663Z,17.80
2022-11-26T13:07:18.460Z,23.43
2022-11-26T13:09:59.039Z,20.50
2022-11-26T13:12:37.260Z,23.63
2022-11-26T13:15:12.589Z,23.50
2022-11-26T13:17:43.771Z,15.17
2022-11-26T13:20:29.935Z,19.57
2022-11-26T13:23:09.490Z,22.93
2022-11-26T13:25:56.108Z,19.33
2022-11-26T13:28:36.132Z,22.10
2022-11-26T13:31:24.240Z,22.60
2022-11-26T13:34:07.296Z,16.43
2022-11-26T13:36:57.751Z,23.60
2022-11-26T13:39:53.608Z,18.20
2022-11-26T13:42:42.285Z,15.30
2022-11-26T13:45:35.825Z,21.10
2022-11-26T13:48:10.348Z,16.03
2022-11-26T13:50:44.819Z,19.10
2022-11-26T13:53:16.894Z,22.23
2022-11-26T13:55:48.833Z,18.23
2022-11-26T13:58:21.895Z,18.67
2022-11-26T14:00:49.340Z,16.53
2022-11-26T14:03:46.393Z,18.37
2022-11-26T14:06:15.042Z,49.57
2022-11-26T14:08:44.959Z,17.23
2022-11-26T14:11:18.382Z,13.63
2022-11-26T14:14:26.909Z,18.60
2022-11-26T14:17:14.523Z,16.33
2022-11-26T14:20:09.565Z,16.23
2022-11-26T14:22:38.731Z,19.80
2022-11-26T14:25:09.804Z,16.73
2022-11-26T14:27:40.713Z,13.90
2022-11-26T14:30:25.509Z,15.43
2022-11-26T14:33:09.430Z,17.57
2022-11-26T14:35:41.566Z,19.13
2022-11-26T14:38:25.957Z,20.60
2022-11-26T14:40:58.414Z,24.60
2022-11-26T14:43:25.846Z,17.40
2022-11-26T14:46:04.809Z,22.33
2022-11-26T14:48:36.364Z,22.10
2022-11-26T14:51:09.324Z,21.43
2022-11-26T14:53:41.297Z,20.57
2022-11-26T14:56:10.780Z,20.83
2022-11-26T14:58:43.221Z,26.03
2022-11-26T15:01:19.875Z,25.83
2022-11-26T15:03:59.012Z,26.30
2022-11-26T15:06:30.229Z,25.10
2022-11-26T15:09:10.890Z,20.03
2022-11-26T15:11:41.563Z,24.40
2022-11-26T15:14:19.524Z,26.80
2022-11-26T15:16:54.380Z,27.33
2022-11-26T15:19:22.577Z,29.27
2022-11-26T15:21:52.031Z,17.50
2022-11-26T15:24:19.876Z,23.63
2022-11-26T15:26:48.840Z,25.20
2022-11-26T15:29:34.936Z,22.50
2022-11-26T15:32:03.097Z,23.77
2022-11-26T15:34:33.124Z,53.27
2022-11-26T15:37:02.040Z,46.93
2022-11-26T15:39:31.534Z,24.00
2022-11-26T15:42:04.408Z,27.80
2022-11-26T15:44:40.557Z,18.13
2022-11-26T15:47:20.899Z,22.10
2022-11-26T15:49:52.015Z,23.40
2022-11-26T15:52:23.538Z,19.20
2022-11-26T15:55:15.664Z,19.13
2022-11-26T15:57:44.728Z,20.30
2022-11-26T16:00:22.157Z,21.80
2022-11-26T16:02:51.456Z,21.57
2022-11-26T16:05:30.505Z,19.67
2022-11-26T16:08:02.237Z,16.00
2022-11-26T16:10:35.294Z,19.50
2022-11-26T16:13:08.895Z,20.63
2022-11-26T16:15:36.959Z,19.20
2022-11-26T16:18:13.034Z,24.03
2022-11-26T16:20:40.649Z,19.67
2022-11-26T16:23:22.399Z,22.10
2022-11-26T16:26:13.256Z,20.87
2022-11-26T16:28:40.793Z,15.87
2022-11-26T16:31:08.518Z,20.73
2022-11-26T16:33:36.228Z,22.27
2022-11-26T16:36:16.477Z,19.97
2022-11-26T16:38:45.906Z,22.83
2022-11-26T16:41:14.853Z,20.93
2022-11-26T16:43:42.768Z,16.10
2022-11-26T16:46:14.967Z,20.07
2022-11-26T16:48:44.282Z,17.20
2022-11-26T16:51:14.013Z,23.17
2022-11-26T16:53:41.618Z,21.87
2022-11-26T16:56:18.967Z,20.10
2022-11-26T16:58:47.256Z,19.07
2022-11-26T17:01:14.764Z,21.93
2022-11-26T17:03:48.205Z,22.80
2022-11-26T17:06:25.011Z,18.93
2022-11-26T17:08:55.162Z,20.53
2022-11-26T17:11:24.758Z,23.20
2022-11-26T17:13:52.327Z,21.63
2022-11-26T17:16:22.098Z,22.80
2022-11-26T17:18:53.015Z,29.50
2022-11-26T17:21:20.855Z,32.47
2022-11-26T17:23:48.380Z,25.97
2022-11-26T17:26:20.574Z,23.87
2022-11-26T17:28:49.983Z,25.17
2022-11-26T17:31:17.807Z,24.90
2022-11-26T17:33:45.427Z,26.47
2022-11-26T17:36:17.240Z,31.93
2022-11-26T17:38:45.546Z,23.00
2022-11-26T17:41:13.290Z,30.20
2022-11-26T17:43:40.880Z,32.17
2022-11-26T17:46:15.842Z,34.00
2022-11-26T17:48:43.841Z,33.40
2022-11-26T17:51:14.224Z,31.53
2022-11-26T17:53:42.514Z,29.20
2022-11-26T17:56:17.309Z,34.20
2022-11-26T17:58:45.198Z,27.53
2022-11-26T18:01:14.850Z,28.40
2022-11-26T18:03:42.658Z,33.27
2022-11-26T18:06:15.700Z,31.63
2022-11-26T18:08:43.447Z,31.03
2022-11-26T18:11:12.023Z,38.57
2022-11-26T18:13:39.672Z,32.33
2022-11-26T18:16:07.315Z,29.93
2022-11-26T18:18:36.189Z,35.80
2022-11-26T18:21:03.693Z,29.77
2022-11-26T18:23:31.504Z,29.80
2022-11-26T18:25:58.901Z,41.77
2022-11-26T18:28:26.312Z,33.10
2022-11-26T18:30:58.167Z,215.37
2022-11-26T18:33:27.101Z,69.50
2022-11-26T18:35:58.782Z,71.73
2022-11-26T18:38:30.761Z,31.00
2022-11-26T18:41:05.592Z,95.73
2022-11-26T18:43:33.533Z,39.70
2022-11-26T18:46:04.055Z,60.90
2022-11-26T18:48:34.240Z,33.70
2022-11-26T18:51:03.463Z,31.77
2022-11-26T18:53:31.513Z,30.13
2022-11-26T18:55:59.791Z,31.83
2022-11-26T18:58:30.944Z,33.80
2022-11-26T19:00:59.555Z,33.13
2022-11-26T19:03:28.174Z,64.77
2022-11-26T19:05:56.140Z,71.60
2022-11-26T19:08:28.075Z,65.27
2022-11-26T19:10:55.474Z,36.30
2022-11-26T19:13:27.577Z,34.03
2022-11-26T19:16:02.206Z,24.37
2022-11-26T19:18:30.645Z,20.20
2022-11-26T19:21:00.359Z,27.73
2022-11-26T19:23:29.452Z,26.87
2022-11-26T19:25:57.019Z,27.33
2022-11-26T19:28:26.346Z,30.13
2022-11-26T19:31:05.086Z,25.67
2022-11-26T19:33:33.399Z,41.27
2022-11-26T19:36:04.868Z,39.10
2022-11-26T19:38:34.042Z,35.80
2022-11-26T19:41:02.418Z,29.37
2022-11-26T19:43:31.901Z,90.43
2022-11-26T19:46:03.774Z,36.37
2022-11-26T19:48:34.608Z,88.33
2022-11-26T19:51:02.566Z,46.40
2022-11-26T19:53:30.111Z,27.47
2022-11-26T19:56:02.535Z,31.17
2022-11-26T19:58:31.197Z,28.53
2022-11-26T20:00:59.099Z,32.33
2022-11-26T20:03:29.845Z,35.30
2022-11-26T20:06:06.063Z,46.57
2022-11-26T20:08:34.436Z,49.80
2022-11-26T20:11:08.893Z,54.87
2022-11-26T20:13:38.011Z,43.77
2022-11-26T20:16:07.063Z,40.97
2022-11-26T20:18:34.842Z,36.50
2022-11-26T20:21:03.937Z,52.00
2022-11-26T20:23:34.762Z,42.67
2022-11-26T20:26:02.513Z,58.60
2022-11-26T20:28:31.484Z,41.40
2022-11-26T20:30:59.004Z,53.13
2022-11-26T20:33:26.823Z,126.97
2022-11-26T20:35:55.631Z,73.27
2022-11-26T20:38:23.399Z,71.43
2022-11-26T20:41:00.073Z,77.13
2022-11-26T20:43:35.494Z,48.03
2022-11-26T20:46:06.590Z,63.23
2022-11-26T20:48:39.010Z,65.93
2022-11-26T20:51:08.657Z,81.37
2022-11-26T20:53:37.676Z,65.97
2022-11-26T20:56:06.367Z,49.77
2022-11-26T20:58:33.929Z,56.60
2022-11-26T21:01:01.469Z,56.60
2022-11-26T21:03:31.876Z,57.87
2022-11-26T21:06:02.869Z,48.67
2022-11-26T21:08:30.478Z,62.87
2022-11-26T21:10:57.847Z,87.10
2022-11-26T21:13:25.311Z,60.77
2022-11-26T21:15:52.671Z,55.80
2022-11-26T21:18:20.267Z,53.73
2022-11-26T21:20:48.983Z,59.83
2022-11-26T21:23:16.412Z,62.20
2022-11-26T21:25:44.337Z,61.97
2022-11-26T21:28:14.768Z,44.47
2022-11-26T21:30:42.946Z,44.37
2022-11-26T21:33:10.438Z,50.10
2022-11-26T21:35:38.436Z,52.40
2022-11-26T21:38:07.228Z,44.73
2022-11-26T21:40:34.715Z,40.97
2022-11-26T21:43:02.349Z,36.07
2022-11-26T21:45:30.008Z,58.57
2022-11-26T21:47:57.434Z,54.27
2022-11-26T21:50:24.812Z,63.07
2022-11-26T21:52:52.246Z,48.53
2022-11-26T21:55:22.119Z,49.50
2022-11-26T21:57:49.606Z,49.00
2022-11-26T22:00:18.253Z,90.00
2022-11-26T22:02:45.806Z,58.00
2022-11-26T22:05:13.329Z,47.33
2022-11-26T22:07:40.837Z,48.23
2022-11-26T22:10:09.871Z,56.87
2022-11-26T22:12:38.667Z,53.47
2022-11-26T22:15:06.994Z,79.37
2022-11-26T22:17:34.452Z,51.47
2022-11-26T22:20:01.850Z,45.53
2022-11-26T22:22:29.353Z,50.13
2022-11-26T22:24:56.791Z,118.77
2022-11-26T22:27:24.318Z,60.27
2022-11-26T22:29:53.131Z,54.57
2022-11-26T22:32:21.741Z,56.70
2022-11-26T22:34:49.145Z,68.97
2022-11-26T22:37:16.604Z,54.87
2022-11-26T22:39:44.030Z,53.57
2022-11-26T22:42:13.747Z,37.13
2022-11-26T22:44:41.219Z,41.97
2022-11-26T22:47:10.123Z,30.93
2022-11-26T22:49:38.552Z,54.43
2022-11-26T22:52:06.370Z,52.17
2022-11-26T22:54:33.773Z,75.83
2022-11-26T22:57:01.299Z,63.10
2022-11-26T22:59:28.811Z,44.73
2022-11-26T23:01:56.801Z,50.47
2022-11-26T23:04:25.571Z,60.53
2022-11-26T23:06:52.968Z,36.40
2022-11-26T23:09:20.410Z,68.23
2022-11-26T23:11:47.869Z,77.20
2022-11-26T23:14:15.341Z,90.27
2022-11-26T23:16:43.907Z,134.70
2022-11-26T23:19:14.710Z,94.43
2022-11-26T23:21:44.704Z,76.83
2022-11-26T23:24:12.327Z,54.77
2022-11-26T23:26:41.242Z,88.47
2022-11-26T23:29:10.077Z,93.70
2022-11-26T23:31:39.836Z,72.67
2022-11-26T23:34:08.945Z,48.67
2022-11-26T23:36:37.411Z,37.93
2022-11-26T23:39:07.992Z,60.63
2022-11-26T23:41:35.489Z,50.60
2022-11-26T23:44:03.430Z,57.70
2022-11-26T23:46:33.082Z,45.47
2022-11-26T23:49:00.499Z,50.90
2022-11-26T23:51:31.345Z,63.07
2022-11-26T23:53:59.187Z,68.77
2022-11-26T23:56:30.116Z,44.67
2022-11-26T23:58:59.362Z,51.33
